createdAt,value
2022-11-16T00:01:33.096Z,10.40
2022-11-16T00:04:01.555Z,8.85
2022-11-16T00:06:29.300Z,11.23
2022-11-16T00:09:19.638Z,10.50
2022-11-16T00:11:46.847Z,9.80
2022-11-16T00:14:13.677Z,12.48
2022-11-16T00:16:41.026Z,10.45
2022-11-16T00:19:09.473Z,8.90
2022-11-16T00:21:36.305Z,10.77
2022-11-16T00:24:03.924Z,9.82
2022-11-16T00:26:30.749Z,10.38
2022-11-16T00:28:58.076Z,11.63
2022-11-16T00:31:25.302Z,11.45
2022-11-16T00:33:52.409Z,14.52
2022-11-16T00:36:19.428Z,13.07
2022-11-16T00:38:46.381Z,12.68
2022-11-16T00:41:13.376Z,14.50
2022-11-16T00:43:40.262Z,11.95
2022-11-16T00:46:07.059Z,11.48
2022-11-16T00:48:34.041Z,9.85
2022-11-16T00:51:01.138Z,13.20
2022-11-16T00:53:28.009Z,17.45
2022-11-16T00:55:54.803Z,15.13
2022-11-16T00:58:21.663Z,13.88
2022-11-16T01:00:48.830Z,11.50
2022-11-16T01:03:15.779Z,14.60
2022-11-16T01:05:42.533Z,12.57
2022-11-16T01:08:09.790Z,13.43
2022-11-16T01:10:39.967Z,14.68
2022-11-16T01:13:07.189Z,12.52
2022-11-16T01:15:34.020Z,16.02
2022-11-16T01:18:00.798Z,17.20
2022-11-16T01:20:29.529Z,12.95
2022-11-16T01:22:56.698Z,14.77
2022-11-16T01:25:23.609Z,12.82
2022-11-16T01:27:50.387Z,14.48
2022-11-16T01:30:17.512Z,14.93
2022-11-16T01:32:44.486Z,12.77
2022-11-16T01:35:17.078Z,13.45
2022-11-16T01:37:44.293Z,16.13
2022-11-16T01:40:12.854Z,13.55
2022-11-16T01:42:40.646Z,14.52
2022-11-16T01:45:18.799Z,14.45
2022-11-16T01:47:45.866Z,14.30
2022-11-16T01:50:17.172Z,18.23
2022-11-16T01:52:51.946Z,13.50
2022-11-16T01:55:18.777Z,11.73
2022-11-16T01:57:47.255Z,13.48
2022-11-16T02:00:14.842Z,14.27
2022-11-16T02:02:42.242Z,17.02
2022-11-16T02:05:11.014Z,14.18
2022-11-16T02:08:05.569Z,14.07
2022-11-16T02:10:35.264Z,14.18
2022-11-16T02:13:27.953Z,14.50
2022-11-16T02:15:57.763Z,14.23
2022-11-16T02:18:49.076Z,14.45
2022-11-16T02:21:40.705Z,13.10
2022-11-16T02:24:19.644Z,11.65
2022-11-16T02:27:13.926Z,13.38
2022-11-16T02:29:50.120Z,13.63
2022-11-16T02:32:35.890Z,12.77
2022-11-16T02:35:27.354Z,11.00
2022-11-16T02:37:59.139Z,14.40
2022-11-16T02:40:30.805Z,15.05
2022-11-16T02:43:08.438Z,12.77
2022-11-16T02:45:40.488Z,12.20
2022-11-16T02:48:29.485Z,14.05
2022-11-16T02:50:56.670Z,14.50
2022-11-16T02:53:25.073Z,15.35
2022-11-16T02:55:52.362Z,15.20
2022-11-16T02:58:23.053Z,16.13
2022-11-16T03:00:52.979Z,17.77
2022-11-16T03:03:46.411Z,13.40
2022-11-16T03:06:19.069Z,15.65
2022-11-16T03:08:53.027Z,16.05
2022-11-16T03:11:38.321Z,18.50
2022-11-16T03:14:11.679Z,18.38
2022-11-16T03:16:42.141Z,15.75
2022-11-16T03:19:13.134Z,18.60
2022-11-16T03:21:51.168Z,18.63
2022-11-16T03:24:17.992Z,16.73
2022-11-16T03:26:50.495Z,19.85
2022-11-16T03:31:57.441Z,18.02
2022-11-16T03:34:29.186Z,18.95
2022-11-16T03:36:56.887Z,21.05
2022-11-16T03:39:31.839Z,21.65
2022-11-16T03:42:00.909Z,21.90
2022-11-16T03:44:28.780Z,20.13
2022-11-16T03:46:55.649Z,22.58
2022-11-16T03:49:23.488Z,22.70
2022-11-16T03:51:51.039Z,22.73
2022-11-16T03:54:17.854Z,24.40
2022-11-16T03:56:44.582Z,19.90
2022-11-16T03:59:11.321Z,24.50
2022-11-16T04:01:41.874Z,22.05
2022-11-16T04:04:31.312Z,20.17
2022-11-16T04:07:17.016Z,23.63
2022-11-16T04:10:02.272Z,25.73
2022-11-16T04:12:47.797Z,28.65
2022-11-16T04:15:40.998Z,26.13
2022-11-16T04:18:32.454Z,31.67
2022-11-16T04:21:18.214Z,22.63
2022-11-16T04:24:22.532Z,23.15
2022-11-16T04:27:17.131Z,28.05
2022-11-16T04:29:44.151Z,22.27
2022-11-16T04:32:29.872Z,25.23
2022-11-16T04:35:15.319Z,26.65
2022-11-16T04:37:54.692Z,25.70
2022-11-16T04:40:24.572Z,25.90
2022-11-16T04:42:56.026Z,26.90
2022-11-16T04:45:42.858Z,26.25
2022-11-16T04:48:11.267Z,26.70
2022-11-16T04:50:38.461Z,24.38
2022-11-16T04:53:06.169Z,26.27
2022-11-16T04:55:33.373Z,27.98
2022-11-16T04:58:10.457Z,26.20
2022-11-16T05:00:37.237Z,26.05
2022-11-16T05:03:05.051Z,28.33
2022-11-16T05:05:31.848Z,26.33
2022-11-16T05:07:58.642Z,28.42
2022-11-16T05:10:25.433Z,30.67
2022-11-16T05:12:52.145Z,25.90
2022-11-16T05:15:19.857Z,26.92
2022-11-16T05:17:47.468Z,30.40
2022-11-16T05:20:32.668Z,28.48
2022-11-16T05:22:59.559Z,30.30
2022-11-16T05:25:26.662Z,25.83
2022-11-16T05:27:53.804Z,27.95
2022-11-16T05:30:20.633Z,29.40
2022-11-16T05:32:47.389Z,27.10
2022-11-16T05:35:18.292Z,28.80
2022-11-16T05:37:45.111Z,28.33
2022-11-16T05:40:12.316Z,31.85
2022-11-16T05:42:39.051Z,29.73
2022-11-16T05:45:06.237Z,30.92
2022-11-16T05:47:43.057Z,28.60
2022-11-16T05:50:10.040Z,29.42
2022-11-16T05:52:36.725Z,30.00
2022-11-16T05:55:03.715Z,31.83
2022-11-16T05:57:30.451Z,29.58
2022-11-16T05:59:57.155Z,30.48
2022-11-16T06:02:32.093Z,31.23
2022-11-16T06:04:58.821Z,32.70
2022-11-16T06:07:25.661Z,37.22
2022-11-16T06:09:52.395Z,29.65
2022-11-16T06:12:19.144Z,37.00
2022-11-16T06:14:46.210Z,32.85
2022-11-16T06:17:18.130Z,30.00
2022-11-16T06:19:44.945Z,34.30
2022-11-16T06:22:11.691Z,33.20
2022-11-16T06:24:38.395Z,34.85
2022-11-16T06:27:05.122Z,33.83
2022-11-16T06:29:31.815Z,32.65
2022-11-16T06:31:58.569Z,32.67
2022-11-16T06:34:25.325Z,34.75
2022-11-16T06:36:52.150Z,31.15
2022-11-16T06:39:18.907Z,34.05
2022-11-16T06:41:45.616Z,31.25
2022-11-16T06:44:12.543Z,37.08
2022-11-16T06:46:39.284Z,34.13
2022-11-16T06:49:06.065Z,35.85
2022-11-16T06:51:32.817Z,39.20
2022-11-16T06:53:59.508Z,36.75
2022-11-16T06:56:26.304Z,35.03
2022-11-16T06:58:53.669Z,37.47
2022-11-16T07:01:20.589Z,38.67
2022-11-16T07:03:47.326Z,30.67
2022-11-16T07:06:15.590Z,32.30
2022-11-16T07:08:43.486Z,33.03
2022-11-16T07:11:11.216Z,32.00
2022-11-16T07:13:38.607Z,32.10
2022-11-16T07:16:07.548Z,29.33
2022-11-16T07:18:41.688Z,33.35
2022-11-16T07:21:09.616Z,33.25
2022-11-16T07:23:36.468Z,34.08
2022-11-16T07:26:04.882Z,31.73
2022-11-16T07:28:32.701Z,34.33
2022-11-16T07:31:07.713Z,30.45
2022-11-16T07:33:35.210Z,30.38
2022-11-16T07:36:10.535Z,31.75
2022-11-16T07:38:37.479Z,31.60
2022-11-16T07:41:06.481Z,32.25
2022-11-16T07:43:37.013Z,28.13
2022-11-16T07:46:46.063Z,29.20
2022-11-16T07:49:11.404Z,30.58
2022-11-16T07:51:38.578Z,30.05
2022-11-16T07:54:06.572Z,28.10
2022-11-16T07:56:33.485Z,27.73
2022-11-16T07:59:01.481Z,26.95
2022-11-16T08:01:28.233Z,32.38
2022-11-16T08:03:55.031Z,26.52
2022-11-16T08:06:25.463Z,25.60
2022-11-16T08:08:56.804Z,28.08
2022-11-16T08:11:25.556Z,27.77
2022-11-16T08:13:56.119Z,29.27
2022-11-16T08:16:23.350Z,27.17
2022-11-16T08:18:50.434Z,27.00
2022-11-16T08:21:18.738Z,30.77
2022-11-16T08:23:46.334Z,27.83
2022-11-16T08:26:16.062Z,27.13
2022-11-16T08:28:45.179Z,26.58
2022-11-16T08:31:14.774Z,30.65
2022-11-16T08:33:41.693Z,27.52
2022-11-16T08:36:14.236Z,28.25
2022-11-16T08:38:41.496Z,32.85
2022-11-16T08:41:08.763Z,28.63
2022-11-16T08:43:35.970Z,27.77
2022-11-16T08:46:03.266Z,27.00
2022-11-16T08:48:30.119Z,28.17
2022-11-16T08:51:21.770Z,26.48
2022-11-16T08:53:49.653Z,27.95
2022-11-16T08:56:18.254Z,28.85
2022-11-16T08:58:47.273Z,30.15
2022-11-16T09:01:19.529Z,25.55
2022-11-16T09:03:46.647Z,24.33
2022-11-16T09:06:14.597Z,30.95
2022-11-16T09:08:43.707Z,30.73
2022-11-16T09:11:14.073Z,26.20
2022-11-16T09:13:40.831Z,29.27
2022-11-16T09:20:27.509Z,30.42
2022-11-16T09:22:54.359Z,27.67
2022-11-16T09:25:21.916Z,25.95
2022-11-16T09:27:48.702Z,26.60
2022-11-16T09:30:16.385Z,32.40
2022-11-16T09:32:43.396Z,32.63
2022-11-16T09:35:10.626Z,31.90
2022-11-16T09:37:37.534Z,34.65
2022-11-16T09:40:05.132Z,28.38
2022-11-16T09:42:56.064Z,26.70
2022-11-16T09:45:39.935Z,27.88
2022-11-16T09:48:12.427Z,31.00
2022-11-16T09:50:50.798Z,30.92
2022-11-16T09:53:39.965Z,29.75
2022-11-16T09:56:22.270Z,27.27
2022-11-16T09:59:15.071Z,27.15
2022-11-16T10:02:04.646Z,29.42
2022-11-16T10:04:50.545Z,28.42
2022-11-16T10:07:27.661Z,29.55
2022-11-16T10:09:56.671Z,27.02
2022-11-16T10:12:43.767Z,30.55
2022-11-16T10:15:44.527Z,31.30
2022-11-16T10:18:20.536Z,29.95
2022-11-16T10:21:09.592Z,31.48
2022-11-16T10:23:42.360Z,30.80
2022-11-16T10:26:45.415Z,32.53
2022-11-16T10:29:51.303Z,34.72
2022-11-16T10:32:28.984Z,31.38
2022-11-16T10:35:09.300Z,32.90
2022-11-16T10:37:45.480Z,31.58
2022-11-16T10:40:17.296Z,34.42
2022-11-16T10:42:46.818Z,32.70
2022-11-16T10:45:29.738Z,32.03
2022-11-16T10:48:25.564Z,34.70
2022-11-16T10:50:53.112Z,35.33
2022-11-16T10:53:33.993Z,36.97
2022-11-16T10:56:12.955Z,39.45
2022-11-16T10:58:49.128Z,38.45
2022-11-16T11:01:27.383Z,40.70
2022-11-16T11:03:54.180Z,34.97
2022-11-16T11:06:25.241Z,36.38
2022-11-16T11:08:52.084Z,41.75
2022-11-16T11:11:42.363Z,39.55
2022-11-16T11:14:15.511Z,38.92
2022-11-16T11:16:42.779Z,43.60
2022-11-16T11:19:29.033Z,42.10
2022-11-16T11:21:57.898Z,38.28
2022-11-16T11:27:13.169Z,39.60
2022-11-16T11:29:43.067Z,42.55
2022-11-16T11:32:23.900Z,38.17
2022-11-16T11:34:53.914Z,40.17
2022-11-16T11:37:25.981Z,38.50
2022-11-16T11:40:17.156Z,37.05
2022-11-16T11:42:58.855Z,36.05
2022-11-16T11:45:53.700Z,37.13
2022-11-16T11:48:51.308Z,34.15
2022-11-16T11:51:22.678Z,35.15
2022-11-16T11:54:00.848Z,33.58
2022-11-16T11:56:30.673Z,32.22
2022-11-16T11:58:58.192Z,37.97
2022-11-16T12:01:40.060Z,29.02
2022-11-16T12:04:40.802Z,29.60
2022-11-16T12:07:33.137Z,30.42
2022-11-16T12:10:37.056Z,35.58
2022-11-16T12:13:18.912Z,31.73
2022-11-16T12:15:54.901Z,27.70
2022-11-16T12:18:21.642Z,29.80
2022-11-16T12:21:08.076Z,25.30
2022-11-16T12:24:12.464Z,24.20
2022-11-16T12:26:39.227Z,29.63
2022-11-16T12:29:36.808Z,27.90
2022-11-16T12:32:22.226Z,32.30
2022-11-16T12:35:46.061Z,31.30
2022-11-16T12:38:30.657Z,31.25
2022-11-16T12:41:12.209Z,33.58
2022-11-16T12:43:49.547Z,28.30
2022-11-16T12:46:25.624Z,31.35
2022-11-16T12:49:38.773Z,32.08
2022-11-16T12:52:17.920Z,32.20
2022-11-16T12:58:13.359Z,28.60
2022-11-16T13:01:17.147Z,27.38
2022-11-16T13:03:52.599Z,28.63
2022-11-16T13:06:27.093Z,29.48
2022-11-16T13:09:21.527Z,31.35
2022-11-16T13:11:52.710Z,28.30
2022-11-16T13:14:53.693Z,26.52
2022-11-16T13:17:39.582Z,32.17
2022-11-16T13:20:33.627Z,25.67
2022-11-16T13:23:13.889Z,25.15
2022-11-16T13:25:59.399Z,27.70
2022-11-16T13:28:33.360Z,28.45
2022-11-16T13:31:19.119Z,29.13
2022-11-16T13:33:52.889Z,34.42
2022-11-16T13:36:40.564Z,24.10
2022-11-16T13:39:08.505Z,24.35
2022-11-16T13:41:36.462Z,24.42
2022-11-16T13:44:06.220Z,27.27
2022-11-16T13:46:55.765Z,25.95
2022-11-16T13:49:41.435Z,24.50
2022-11-16T13:52:46.245Z,26.35
2022-11-16T13:55:31.029Z,25.00
2022-11-16T13:58:00.227Z,22.30
2022-11-16T14:00:31.803Z,25.60
2022-11-16T14:03:26.530Z,26.08
2022-11-16T14:05:54.091Z,23.48
2022-11-16T14:08:26.628Z,27.60
2022-11-16T14:13:38.261Z,26.67
2022-11-16T14:16:21.405Z,22.95
2022-11-16T14:18:56.399Z,25.85
2022-11-16T14:21:26.895Z,30.35
2022-11-16T14:24:09.734Z,26.55
2022-11-16T14:29:03.536Z,26.77
2022-11-16T14:31:46.402Z,27.80
2022-11-16T14:36:46.726Z,25.77
2022-11-16T14:39:37.489Z,27.30
2022-11-16T14:42:15.094Z,27.05
2022-11-16T14:44:43.418Z,27.98
2022-11-16T14:47:23.764Z,23.48
2022-11-16T14:49:50.917Z,27.10
2022-11-16T14:52:22.371Z,29.05
2022-11-16T14:54:54.753Z,26.33
2022-11-16T14:57:23.733Z,24.90
2022-11-16T15:00:10.105Z,23.15
2022-11-16T15:02:38.031Z,23.85
2022-11-16T15:05:05.292Z,26.65
2022-11-16T15:07:32.615Z,23.38
2022-11-16T15:10:00.366Z,20.45
2022-11-16T15:12:44.352Z,21.55
2022-11-16T15:15:11.096Z,22.10
2022-11-16T15:17:40.379Z,21.77
2022-11-16T15:20:20.944Z,19.17
2022-11-16T15:22:51.412Z,16.80
2022-11-16T15:25:29.648Z,19.55
2022-11-16T15:28:05.145Z,16.17
2022-11-16T15:30:38.085Z,16.35
2022-11-16T15:33:11.079Z,19.48
2022-11-16T15:35:38.450Z,16.70
2022-11-16T15:38:25.842Z,17.10
2022-11-16T15:40:54.068Z,13.95
2022-11-16T15:43:24.062Z,14.63
2022-11-16T15:45:52.177Z,15.57
2022-11-16T15:48:24.171Z,13.85
2022-11-16T15:51:06.454Z,16.77
2022-11-16T15:53:42.267Z,15.60
2022-11-16T15:56:17.090Z,15.63
2022-11-16T15:58:44.412Z,18.02
2022-11-16T16:01:13.322Z,16.92
2022-11-16T16:03:51.446Z,20.05
2022-11-16T16:06:45.313Z,15.48
2022-11-16T16:09:14.725Z,14.02
2022-11-16T16:11:41.563Z,15.27
2022-11-16T16:14:10.952Z,14.02
2022-11-16T16:16:39.312Z,15.48
2022-11-16T16:19:43.184Z,15.77
2022-11-16T16:22:29.583Z,11.70
2022-11-16T16:24:57.032Z,14.13
2022-11-16T16:27:28.653Z,11.90
2022-11-16T16:29:57.855Z,17.52
2022-11-16T16:32:36.873Z,15.85
2022-11-16T16:35:07.165Z,13.82
2022-11-16T16:37:38.179Z,15.35
2022-11-16T16:40:05.674Z,13.90
2022-11-16T16:42:32.572Z,13.25
2022-11-16T16:45:00.430Z,12.77
2022-11-16T16:47:27.275Z,12.52
2022-11-16T16:49:54.154Z,16.05
2022-11-16T16:52:21.242Z,16.40
2022-11-16T16:54:48.099Z,11.18
2022-11-16T16:57:18.668Z,12.85
2022-11-16T16:59:48.243Z,12.57
2022-11-16T17:02:16.379Z,11.60
2022-11-16T17:04:48.315Z,12.27
2022-11-16T17:07:16.409Z,14.40
2022-11-16T17:09:43.391Z,19.02
2022-11-16T17:12:11.133Z,13.90
2022-11-16T17:14:37.958Z,15.52
2022-11-16T17:17:04.779Z,11.35
2022-11-16T17:19:31.559Z,15.50
2022-11-16T17:21:59.023Z,11.57
2022-11-16T17:24:26.532Z,12.82
2022-11-16T17:26:53.418Z,15.23
2022-11-16T17:29:20.181Z,14.88
2022-11-16T17:31:47.567Z,18.05
2022-11-16T17:34:14.655Z,19.98
2022-11-16T17:36:42.705Z,15.48
2022-11-16T17:39:09.763Z,17.63
2022-11-16T17:41:36.687Z,18.10
2022-11-16T17:44:04.332Z,17.52
2022-11-16T17:46:31.149Z,16.10
2022-11-16T17:48:57.983Z,17.35
2022-11-16T17:51:25.815Z,16.02
2022-11-16T17:53:52.785Z,16.15
2022-11-16T17:56:21.521Z,16.83
2022-11-16T17:58:50.158Z,13.88
2022-11-16T18:01:17.152Z,13.60
2022-11-16T18:03:44.133Z,12.18
2022-11-16T18:06:14.158Z,12.52
2022-11-16T18:08:42.308Z,14.02
2022-11-16T18:11:20.923Z,13.52
2022-11-16T18:13:48.287Z,8.57
2022-11-16T18:16:21.139Z,7.93
2022-11-16T18:18:48.846Z,7.97
2022-11-16T18:21:20.585Z,8.85
2022-11-16T18:23:48.043Z,7.38
2022-11-16T18:26:17.577Z,5.25
2022-11-16T18:28:45.367Z,7.45
2022-11-16T18:31:15.406Z,5.97
2022-11-16T18:33:42.925Z,7.50
2022-11-16T18:36:11.120Z,5.40
2022-11-16T18:38:38.069Z,4.80
2022-11-16T18:41:19.604Z,5.20
2022-11-16T18:43:58.143Z,5.88
2022-11-16T18:46:29.849Z,4.28
2022-11-16T18:48:57.544Z,4.70
2022-11-16T18:51:27.044Z,4.55
2022-11-16T18:53:54.237Z,4.47
2022-11-16T18:56:21.112Z,5.32
2022-11-16T18:58:50.996Z,4.85
2022-11-16T19:01:20.630Z,6.95
2022-11-16T19:03:47.843Z,6.00
2022-11-16T19:06:15.739Z,5.00
2022-11-16T19:08:43.012Z,6.72
2022-11-16T19:11:15.397Z,4.88
2022-11-16T19:13:43.652Z,7.03
2022-11-16T19:16:12.960Z,6.97
2022-11-16T19:18:40.370Z,7.10
2022-11-16T19:21:12.300Z,7.35
2022-11-16T19:23:42.898Z,6.15
2022-11-16T19:26:12.226Z,7.63
2022-11-16T19:28:40.506Z,6.35
2022-11-16T19:31:17.342Z,5.30
2022-11-16T19:33:45.349Z,5.75
2022-11-16T19:36:14.682Z,6.18
2022-11-16T19:38:42.375Z,10.40
2022-11-16T19:41:11.399Z,6.10
2022-11-16T19:43:39.076Z,6.20
2022-11-16T19:46:08.911Z,7.60
2022-11-16T19:48:36.285Z,5.93
2022-11-16T19:51:14.643Z,6.70
2022-11-16T19:53:41.940Z,6.00
2022-11-16T19:56:14.372Z,9.75
2022-11-16T19:58:41.880Z,6.47
2022-11-16T20:01:14.550Z,6.38
2022-11-16T20:03:42.309Z,6.85
2022-11-16T20:06:15.133Z,5.53
2022-11-16T20:08:46.580Z,6.20
2022-11-16T20:11:15.146Z,6.28
2022-11-16T20:13:42.662Z,9.13
2022-11-16T20:16:11.557Z,7.53
2022-11-16T20:18:39.959Z,6.47
2022-11-16T20:21:08.134Z,7.22
2022-11-16T20:23:35.813Z,6.85
2022-11-16T20:26:08.427Z,6.38
2022-11-16T20:28:37.164Z,8.45
2022-11-16T20:31:07.234Z,6.30
2022-11-16T20:33:34.995Z,5.30
2022-11-16T20:36:07.053Z,8.73
2022-11-16T20:38:35.311Z,6.28
2022-11-16T20:41:10.094Z,5.57
2022-11-16T20:43:39.367Z,5.57
2022-11-16T20:46:10.575Z,6.30
2022-11-16T20:48:38.734Z,6.68
2022-11-16T20:51:06.837Z,5.07
2022-11-16T20:53:34.407Z,5.40
2022-11-16T20:56:02.665Z,5.43
2022-11-16T20:58:33.049Z,8.88
2022-11-16T21:01:01.795Z,6.43
2022-11-16T21:03:29.095Z,7.53
2022-11-16T21:05:56.098Z,4.93
2022-11-16T21:08:25.161Z,7.50
2022-11-16T21:10:52.352Z,5.20
2022-11-16T21:13:38.460Z,5.05
2022-11-16T21:16:07.885Z,5.45
2022-11-16T21:18:34.890Z,5.82
2022-11-16T21:21:07.231Z,5.07
2022-11-16T21:23:35.982Z,6.15
2022-11-16T21:26:08.292Z,5.32
2022-11-16T21:28:35.205Z,7.47
2022-11-16T21:31:04.337Z,5.20
2022-11-16T21:33:32.067Z,5.03
2022-11-16T21:36:11.380Z,7.97
2022-11-16T21:38:38.937Z,5.22
2022-11-16T21:41:06.664Z,5.93
2022-11-16T21:43:36.320Z,6.57
2022-11-16T21:46:06.010Z,5.60
2022-11-16T21:48:34.262Z,6.22
2022-11-16T21:51:09.984Z,4.93
2022-11-16T21:53:37.795Z,4.95
2022-11-16T21:56:06.720Z,5.13
2022-11-16T21:58:33.709Z,5.55
2022-11-16T22:01:02.191Z,8.45
2022-11-16T22:03:31.493Z,5.88
2022-11-16T22:06:18.553Z,5.57
2022-11-16T22:08:46.191Z,4.82
2022-11-16T22:11:14.623Z,5.90
2022-11-16T22:13:41.871Z,4.82
2022-11-16T22:16:15.088Z,4.70
2022-11-16T22:18:42.652Z,6.28
2022-11-16T22:21:09.951Z,5.25
2022-11-16T22:23:37.857Z,4.95
2022-11-16T22:26:10.391Z,4.97
2022-11-16T22:28:37.892Z,5.93
2022-11-16T22:31:23.009Z,5.80
2022-11-16T22:33:53.660Z,5.28
2022-11-16T22:36:20.480Z,5.65
2022-11-16T22:38:47.299Z,5.13
2022-11-16T22:41:14.104Z,6.18
2022-11-16T22:43:40.966Z,6.43
2022-11-16T22:46:07.886Z,5.25
2022-11-16T22:48:34.630Z,5.60
2022-11-16T22:51:06.815Z,6.65
2022-11-16T22:53:34.307Z,5.50
2022-11-16T22:56:09.122Z,5.82
2022-11-16T22:58:37.481Z,6.07
2022-11-16T23:01:06.330Z,7.60
2022-11-16T23:03:34.425Z,4.40
2022-11-16T23:06:01.701Z,5.43
2022-11-16T23:08:28.793Z,4.88
2022-11-16T23:11:30.541Z,4.75
2022-11-16T23:14:16.354Z,4.63
2022-11-16T23:16:43.834Z,4.22
2022-11-16T23:19:31.758Z,4.28
2022-11-16T23:22:17.170Z,5.22
2022-11-16T23:25:02.828Z,5.00
2022-11-16T23:28:00.408Z,5.03
2022-11-16T23:30:27.364Z,4.60
2022-11-16T23:32:54.335Z,4.10
2022-11-16T23:35:21.626Z,4.28
2022-11-16T23:37:59.060Z,4.57
2022-11-16T23:40:28.729Z,3.85
2022-11-16T23:43:14.984Z,3.75
2022-11-16T23:45:42.955Z,3.90
2022-11-16T23:48:11.599Z,4.57
2022-11-16T23:50:38.634Z,3.53
2022-11-16T23:53:08.991Z,4.72
2022-11-16T23:55:38.381Z,2.95
2022-11-16T23:58:06.437Z,5.05
